Time;durP1;ratioP1;P1;durP2;ratioP2;P2;SDS_P1;SDS_P2;PMS_P1;PMS_P2;Temp;Humidity;BMP_temperature;BMP_pressure;BME280_temperature;BME280_humidity;BME280_pressure;Samples;Min_cycle;Max_cycle;Signal;HPM_P1;HPM_P2
2022/10/13 00:01:48;;;;;;;7.37;4.20;;;11.70;99.90;;;;;;5107894;28;20436;-77
2022/10/13 00:04:16;;;;;;;6.60;4.80;;;11.60;99.90;;;;;;5113037;28;20448;-77
2022/10/13 00:06:43;;;;;;;7.33;5.00;;;11.60;99.90;;;;;;5112991;28;20475;-77
2022/10/13 00:09:09;;;;;;;9.20;5.00;;;11.50;99.90;;;;;;5108739;28;20466;-76
2022/10/13 00:11:36;;;;;;;8.03;4.77;;;11.50;99.90;;;;;;5113157;28;20451;-76
2022/10/13 00:14:05;;;;;;;6.90;4.90;;;11.40;99.90;;;;;;5112691;28;20454;-77
2022/10/13 00:16:32;;;;;;;6.50;5.77;;;11.50;99.90;;;;;;5109600;28;20463;-76
2022/10/13 00:18:59;;;;;;;8.20;6.00;;;11.60;99.90;;;;;;5111645;28;20451;-76
2022/10/13 00:21:28;;;;;;;7.13;5.13;;;11.60;99.90;;;;;;5112508;28;20455;-76
2022/10/13 00:23:55;;;;;;;8.30;5.40;;;11.40;99.90;;;;;;5112350;28;20443;-72
2022/10/13 00:26:25;;;;;;;9.27;6.47;;;11.50;99.90;;;;;;5112463;28;20482;-76
2022/10/13 00:28:52;;;;;;;7.53;5.67;;;11.60;99.90;;;;;;5112265;28;20450;-75
2022/10/13 00:31:22;;;;;;;10.60;6.33;;;11.80;99.90;;;;;;5113080;28;20806;-74
2022/10/13 00:33:49;;;;;;;13.83;7.90;;;12.10;99.90;;;;;;5112508;28;20460;-74
2022/10/13 00:36:16;;;;;;;19.07;8.00;;;12.20;99.90;;;;;;5112215;28;20444;-75
2022/10/13 00:38:45;;;;;;;11.93;7.70;;;12.20;99.90;;;;;;5108595;27;20455;-75
2022/10/13 00:41:12;;;;;;;12.43;7.13;;;12.50;99.90;;;;;;5112012;28;20791;-76
2022/10/13 00:43:57;;;;;;;11.97;6.80;;;12.50;99.90;;;;;;5112048;28;20451;-76
2022/10/13 00:46:26;;;;;;;15.03;7.63;;;12.60;99.90;;;;;;5112455;28;20491;-72
2022/10/13 00:48:54;;;;;;;10.00;6.40;;;12.70;99.90;;;;;;5112381;28;20480;-75
2022/10/13 00:51:26;;;;;;;13.13;7.00;;;12.60;99.90;;;;;;5111954;28;20452;-75
2022/10/13 00:53:55;;;;;;;16.43;8.50;;;12.70;99.90;;;;;;5099281;28;20922;-75
2022/10/13 00:56:23;;;;;;;14.43;7.40;;;12.70;99.90;;;;;;5112066;28;20458;-76
2022/10/13 00:58:51;;;;;;;10.57;7.00;;;12.70;99.90;;;;;;5111588;28;20483;-76
2022/10/13 01:01:18;;;;;;;9.77;5.97;;;12.70;99.90;;;;;;5111279;28;20444;-73
2022/10/13 01:03:45;;;;;;;7.83;5.90;;;12.70;99.90;;;;;;5111923;28;20455;-74
2022/10/13 01:06:13;;;;;;;13.13;6.77;;;12.50;99.90;;;;;;5110875;28;20579;-75
2022/10/13 01:08:39;;;;;;;10.30;6.93;;;12.30;99.90;;;;;;5108719;28;20443;-75
2022/10/13 01:11:23;;;;;;;11.53;7.23;;;12.30;99.90;;;;;;5111426;28;20974;-75
2022/10/13 01:13:56;;;;;;;11.63;6.40;;;12.20;99.90;;;;;;5109702;28;20432;-72
2022/10/13 01:16:32;;;;;;;13.53;7.80;;;12.10;99.90;;;;;;5112394;28;20460;-75
2022/10/13 01:19:17;;;;;;;11.13;6.30;;;12.10;99.90;;;;;;5110984;28;21021;-75
2022/10/13 01:21:47;;;;;;;9.23;5.60;;;12.10;99.90;;;;;;5112280;28;20444;-76
2022/10/13 01:24:36;;;;;;;9.90;5.93;;;12.00;99.90;;;;;;5111507;28;20655;-76
2022/10/13 01:27:41;;;;;;;14.70;6.43;;;12.00;99.90;;;;;;5104358;28;20836;-76
2022/10/13 01:30:13;;;;;;;9.57;6.60;;;12.20;99.90;;;;;;5103234;28;20444;-76
2022/10/13 01:33:04;;;;;;;10.63;6.40;;;12.00;99.90;;;;;;5111571;28;20448;-76
2022/10/13 01:35:45;;;;;;;9.73;7.50;;;12.10;99.90;;;;;;5111769;28;20444;-76
2022/10/13 01:38:22;;;;;;;11.03;6.03;;;12.00;99.90;;;;;;5109270;28;20444;-76
2022/10/13 01:40:54;;;;;;;9.17;6.50;;;11.90;99.90;;;;;;5110678;28;20934;-76
2022/10/13 01:43:25;;;;;;;17.13;7.27;;;11.90;99.90;;;;;;5111827;28;20440;-76
2022/10/13 01:45:58;;;;;;;11.60;6.70;;;11.80;99.90;;;;;;5111632;28;20458;-75
2022/10/13 01:48:27;;;;;;;12.93;8.10;;;11.70;99.90;;;;;;5111275;28;20483;-75
2022/10/13 01:50:55;;;;;;;11.60;6.73;;;11.60;99.90;;;;;;5111396;28;20440;-66
2022/10/13 01:53:23;;;;;;;10.83;6.90;;;11.60;99.90;;;;;;5111777;28;20802;-75
2022/10/13 01:55:51;;;;;;;12.30;7.33;;;11.60;99.90;;;;;;5111828;28;20794;-73
2022/10/13 01:58:18;;;;;;;11.90;7.10;;;11.60;99.90;;;;;;5110091;28;20954;-76
2022/10/13 02:00:59;;;;;;;10.80;8.60;;;11.80;99.90;;;;;;5111364;28;20448;-75
2022/10/13 02:03:36;;;;;;;16.17;6.70;;;11.80;99.90;;;;;;5111851;28;20439;-75
2022/10/13 02:06:11;;;;;;;17.07;8.43;;;12.00;99.90;;;;;;5114589;28;20790;-74
2022/10/13 02:08:44;;;;;;;11.07;7.20;;;12.10;99.90;;;;;;5112477;28;20435;-74
2022/10/13 02:11:14;;;;;;;12.30;8.37;;;12.20;99.90;;;;;;5114812;28;20459;-74
2022/10/13 02:13:45;;;;;;;12.60;8.00;;;12.30;99.90;;;;;;5109235;28;20444;-75
2022/10/13 02:16:15;;;;;;;11.33;7.40;;;12.40;99.90;;;;;;5112152;28;20767;-76
2022/10/13 02:18:43;;;;;;;12.37;7.63;;;12.30;99.90;;;;;;5115041;28;20455;-74
2022/10/13 02:21:10;;;;;;;13.80;7.53;;;12.30;99.90;;;;;;5114721;28;20459;-75
2022/10/13 02:23:37;;;;;;;10.27;6.83;;;12.40;99.90;;;;;;5115353;28;20443;-75
2022/10/13 02:26:05;;;;;;;14.70;7.53;;;12.30;99.90;;;;;;5114621;28;20443;-76
2022/10/13 02:28:32;;;;;;;19.57;7.50;;;12.40;99.90;;;;;;5113949;28;20946;-75
2022/10/13 02:30:58;;;;;;;13.77;8.10;;;12.50;99.90;;;;;;5114543;28;20444;-75
2022/10/13 02:33:27;;;;;;;10.07;6.77;;;12.50;99.90;;;;;;5115252;28;20447;-75
2022/10/13 02:35:54;;;;;;;9.00;5.30;;;12.50;99.90;;;;;;5114598;28;20451;-66
2022/10/13 02:38:21;;;;;;;11.40;7.00;;;12.30;99.90;;;;;;5114409;28;20443;-75
2022/10/13 02:40:48;;;;;;;12.33;7.83;;;12.40;99.90;;;;;;5114920;28;20451;-76
2022/10/13 02:43:15;;;;;;;11.27;6.83;;;12.50;99.90;;;;;;5114061;28;20454;-76
2022/10/13 02:45:42;;;;;;;16.33;6.73;;;12.50;99.90;;;;;;5101845;28;20451;-76
2022/10/13 02:48:09;;;;;;;16.10;8.10;;;12.50;99.90;;;;;;5113666;28;20498;-76
2022/10/13 02:50:37;;;;;;;14.23;8.83;;;12.40;99.90;;;;;;5114928;28;20809;-76
2022/10/13 02:53:04;;;;;;;10.63;7.07;;;12.40;99.90;;;;;;5114202;28;20455;-76
2022/10/13 02:55:30;;;;;;;13.43;7.63;;;12.40;99.90;;;;;;5114745;28;20448;-75
2022/10/13 02:57:57;;;;;;;11.07;7.70;;;12.40;99.90;;;;;;5113187;28;20444;-74
2022/10/13 03:00:25;;;;;;;16.73;8.07;;;12.40;99.90;;;;;;5114126;28;20448;-72
2022/10/13 03:02:52;;;;;;;12.37;6.73;;;12.50;99.90;;;;;;5124473;27;20471;-76
2022/10/13 03:05:19;;;;;;;15.40;8.63;;;12.50;99.90;;;;;;5114771;28;20451;-75
2022/10/13 03:07:48;;;;;;;22.03;7.13;;;12.50;99.90;;;;;;5113460;28;20472;-75
2022/10/13 03:10:15;;;;;;;13.97;7.13;;;12.60;99.90;;;;;;5113906;28;20531;-76
2022/10/13 03:12:42;;;;;;;14.23;7.83;;;12.60;99.90;;;;;;5113959;28;20456;-75
2022/10/13 03:15:09;;;;;;;11.77;7.03;;;12.60;99.90;;;;;;5113273;28;20452;-76
2022/10/13 03:17:36;;;;;;;17.50;7.90;;;12.60;99.90;;;;;;5113639;28;20468;-75
2022/10/13 03:20:03;;;;;;;11.47;6.33;;;12.70;99.90;;;;;;5114069;28;20444;-76
2022/10/13 03:22:31;;;;;;;13.47;8.03;;;12.70;99.90;;;;;;5114045;28;20497;-75
2022/10/13 03:25:00;;;;;;;14.07;8.77;;;12.70;99.90;;;;;;5113532;28;20451;-75
2022/10/13 03:27:26;;;;;;;17.53;8.17;;;12.70;99.90;;;;;;5113371;28;20484;-75
2022/10/13 03:29:54;;;;;;;12.70;8.20;;;12.80;99.90;;;;;;5113942;28;20463;-74
2022/10/13 03:32:20;;;;;;;13.83;7.83;;;12.80;99.90;;;;;;5113896;28;20444;-74
2022/10/13 03:34:47;;;;;;;12.77;8.33;;;12.80;99.90;;;;;;5114091;28;20448;-76
2022/10/13 03:37:14;;;;;;;15.97;7.97;;;12.80;99.90;;;;;;5112879;28;20664;-76
2022/10/13 03:39:41;;;;;;;14.20;8.37;;;12.90;99.90;;;;;;5113226;28;20451;-75
2022/10/13 03:42:09;;;;;;;15.43;8.00;;;12.90;99.90;;;;;;5110263;28;20810;-76
2022/10/13 03:44:36;;;;;;;12.00;7.00;;;12.90;99.90;;;;;;5113631;28;20454;-75
2022/10/13 03:47:03;;;;;;;15.70;7.57;;;13.00;99.90;;;;;;5112795;28;20476;-75
2022/10/13 03:49:30;;;;;;;13.97;7.27;;;13.00;99.90;;;;;;5113157;28;20487;-76
2022/10/13 03:51:56;;;;;;;9.97;6.80;;;13.00;99.90;;;;;;5112319;28;20474;-75
2022/10/13 03:54:23;;;;;;;19.97;7.43;;;13.10;99.90;;;;;;5110202;28;20440;-74
2022/10/13 03:56:50;;;;;;;12.10;7.27;;;13.10;99.90;;;;;;5098076;28;20552;-74
2022/10/13 03:59:18;;;;;;;13.40;8.40;;;13.10;99.90;;;;;;5106278;28;20448;-77
2022/10/13 04:01:45;;;;;;;14.20;7.00;;;13.10;99.90;;;;;;5108244;28;20969;-76
2022/10/13 04:04:12;;;;;;;10.60;7.20;;;13.10;99.90;;;;;;5116105;28;20444;-79
2022/10/13 04:06:39;;;;;;;9.97;6.40;;;13.20;99.90;;;;;;5127766;28;20468;-77
2022/10/13 04:09:06;;;;;;;11.67;6.87;;;13.20;99.90;;;;;;5116325;28;20448;-79
2022/10/13 04:11:34;;;;;;;13.70;7.90;;;13.30;99.90;;;;;;5116730;28;20487;-77
2022/10/13 04:14:00;;;;;;;12.80;8.00;;;13.20;99.90;;;;;;5124881;28;20458;-75
2022/10/13 04:16:30;;;;;;;10.90;6.63;;;13.20;99.90;;;;;;5117468;28;20452;-77
2022/10/13 04:18:59;;;;;;;14.83;7.47;;;13.20;99.90;;;;;;5113524;28;20456;-77
2022/10/13 04:21:27;;;;;;;10.67;8.10;;;13.10;99.90;;;;;;5112564;28;20447;-79
2022/10/13 04:23:57;;;;;;;11.53;7.07;;;13.20;99.90;;;;;;5112452;28;20463;-68
2022/10/13 04:26:26;;;;;;;7.83;6.23;;;13.20;99.90;;;;;;5104285;28;20930;-73
2022/10/13 04:28:54;;;;;;;15.37;6.70;;;13.20;99.90;;;;;;5107496;28;20502;-73
2022/10/13 04:31:21;;;;;;;8.93;6.53;;;13.20;99.90;;;;;;5110949;28;20436;-72
2022/10/13 04:33:50;;;;;;;11.80;6.60;;;13.20;99.90;;;;;;5107724;28;20477;-76
2022/10/13 04:36:18;;;;;;;9.60;6.10;;;13.20;99.90;;;;;;5112502;28;20531;-76
2022/10/13 04:38:45;;;;;;;16.70;6.83;;;13.20;99.90;;;;;;5108764;28;20969;-75
2022/10/13 04:41:13;;;;;;;16.87;7.13;;;13.30;99.90;;;;;;5112282;28;20444;-72
2022/10/13 04:43:40;;;;;;;13.57;8.10;;;13.30;99.90;;;;;;5111439;28;20459;-76
2022/10/13 04:46:09;;;;;;;11.80;7.43;;;13.30;99.90;;;;;;5111984;28;20462;-76
2022/10/13 04:48:36;;;;;;;11.80;6.77;;;13.30;99.90;;;;;;5112207;28;20506;-75
2022/10/13 04:51:06;;;;;;;8.20;6.80;;;13.20;99.90;;;;;;5112056;28;20448;-75
2022/10/13 04:53:33;;;;;;;15.07;7.13;;;13.20;99.90;;;;;;5112155;28;20450;-75
2022/10/13 04:56:04;;;;;;;10.87;6.63;;;13.20;99.90;;;;;;5112089;28;20444;-75
2022/10/13 04:58:31;;;;;;;14.00;7.30;;;13.10;99.90;;;;;;5112405;28;20455;-75
2022/10/13 05:00:58;;;;;;;12.97;6.73;;;13.00;99.90;;;;;;5111802;28;20810;-75
2022/10/13 05:03:25;;;;;;;12.20;6.70;;;12.90;99.90;;;;;;5111892;28;20444;-74
2022/10/13 05:05:53;;;;;;;10.50;7.27;;;12.90;99.90;;;;;;5112788;28;20795;-76
2022/10/13 05:08:21;;;;;;;9.17;6.63;;;12.80;99.90;;;;;;5112022;28;21072;-75
2022/10/13 05:10:54;;;;;;;11.00;7.50;;;12.80;99.90;;;;;;5112169;28;20452;-75
2022/10/13 05:13:21;;;;;;;11.83;6.57;;;12.80;99.90;;;;;;5112085;28;20485;-74
2022/10/13 05:15:47;;;;;;;10.87;6.17;;;12.70;99.90;;;;;;5112077;28;20961;-75
2022/10/13 05:18:14;;;;;;;15.83;8.27;;;12.70;99.90;;;;;;5111619;28;20451;-75
2022/10/13 05:20:41;;;;;;;9.50;6.10;;;12.70;99.90;;;;;;5112114;28;20451;-75
2022/10/13 05:23:08;;;;;;;17.00;7.17;;;12.70;99.90;;;;;;5111046;28;20456;-75
2022/10/13 05:25:37;;;;;;;13.17;6.40;;;12.70;99.90;;;;;;5111758;28;21049;-74
2022/10/13 05:28:05;;;;;;;15.43;6.90;;;12.70;99.90;;;;;;5111360;28;20480;-75
2022/10/13 05:30:32;;;;;;;8.60;6.33;;;12.70;99.90;;;;;;5111754;28;20939;-75
2022/10/13 05:32:59;;;;;;;14.07;6.80;;;12.70;99.90;;;;;;5110970;28;20443;-75
2022/10/13 05:35:27;;;;;;;10.70;6.80;;;12.70;99.90;;;;;;5111750;28;20440;-74
2022/10/13 05:37:54;;;;;;;9.77;6.10;;;12.60;99.90;;;;;;5112137;28;20451;-75
2022/10/13 05:40:21;;;;;;;10.83;6.87;;;12.70;99.90;;;;;;5111895;28;20557;-74
2022/10/13 05:42:49;;;;;;;12.33;6.40;;;12.70;99.90;;;;;;5111493;28;20451;-75
2022/10/13 05:45:18;;;;;;;11.23;6.50;;;12.70;99.90;;;;;;5111375;28;20452;-75
2022/10/13 05:47:44;;;;;;;12.73;7.33;;;12.70;99.90;;;;;;5111795;28;20505;-75
2022/10/13 05:50:11;;;;;;;10.53;5.80;;;12.60;99.90;;;;;;5111303;28;20447;-75
2022/10/13 05:52:38;;;;;;;14.17;7.70;;;12.60;99.90;;;;;;5111237;28;20932;-75
2022/10/13 05:55:08;;;;;;;12.80;6.77;;;12.60;99.90;;;;;;5111378;28;20803;-75
2022/10/13 05:57:38;;;;;;;11.43;7.37;;;12.60;99.90;;;;;;5111798;28;20454;-75
2022/10/13 06:00:09;;;;;;;8.57;5.83;;;12.60;99.90;;;;;;5110730;28;20462;-76
2022/10/13 06:02:41;;;;;;;14.90;7.27;;;12.70;99.90;;;;;;5103069;28;20919;-75
2022/10/13 06:05:12;;;;;;;16.50;7.63;;;12.70;99.90;;;;;;5110407;28;20444;-75
2022/10/13 06:07:39;;;;;;;13.47;7.37;;;12.70;99.90;;;;;;5111565;28;20479;-75
2022/10/13 06:10:07;;;;;;;13.20;6.70;;;12.70;99.90;;;;;;5110685;28;20443;-75
2022/10/13 06:12:34;;;;;;;10.90;6.23;;;12.90;99.90;;;;;;5110825;28;20447;-73
2022/10/13 06:15:00;;;;;;;20.33;8.20;;;12.80;99.90;;;;;;5111044;28;20444;-74
2022/10/13 06:17:28;;;;;;;10.37;6.90;;;12.90;99.90;;;;;;5111444;28;20452;-75
2022/10/13 06:19:55;;;;;;;11.27;7.63;;;12.90;99.90;;;;;;5110931;28;20452;-74
2022/10/13 06:22:22;;;;;;;12.33;6.87;;;12.90;99.90;;;;;;5110683;28;20452;-74
2022/10/13 06:24:49;;;;;;;16.37;6.57;;;12.80;99.90;;;;;;5111922;28;20448;-75
2022/10/13 06:27:16;;;;;;;11.80;7.00;;;12.80;99.90;;;;;;5110731;28;20442;-74
2022/10/13 06:29:42;;;;;;;12.27;7.40;;;12.90;99.90;;;;;;5111259;28;20444;-74
2022/10/13 06:32:09;;;;;;;10.57;5.97;;;12.80;99.90;;;;;;5110297;28;20451;-74
2022/10/13 06:34:37;;;;;;;10.33;6.23;;;12.90;99.90;;;;;;5111056;28;20446;-76
2022/10/13 06:37:05;;;;;;;14.70;7.50;;;12.80;99.90;;;;;;5110715;28;20489;-76
2022/10/13 06:39:32;;;;;;;9.23;6.93;;;12.80;99.90;;;;;;5111298;28;20842;-75
2022/10/13 06:41:58;;;;;;;11.83;6.60;;;12.80;99.90;;;;;;5109891;28;20444;-75
2022/10/13 06:44:25;;;;;;;10.80;6.40;;;12.90;99.90;;;;;;5110970;28;20452;-75
2022/10/13 06:46:52;;;;;;;20.10;7.77;;;12.90;99.90;;;;;;5111027;28;20462;-73
2022/10/13 06:49:19;;;;;;;11.23;7.13;;;12.90;99.90;;;;;;5111791;28;20487;-76
2022/10/13 06:51:48;;;;;;;17.93;6.77;;;12.90;99.90;;;;;;5114588;28;20879;-76
2022/10/13 06:54:15;;;;;;;14.30;7.57;;;12.90;99.90;;;;;;5114387;28;20459;-76
2022/10/13 06:56:42;;;;;;;15.70;7.10;;;13.00;99.90;;;;;;5114785;28;20439;-76
2022/10/13 06:59:09;;;;;;;16.60;7.23;;;13.00;99.90;;;;;;5114098;28;20451;-76
2022/10/13 07:01:36;;;;;;;10.07;6.70;;;13.00;99.90;;;;;;5114215;28;20447;-75
2022/10/13 07:04:03;;;;;;;10.70;6.10;;;13.20;99.90;;;;;;5113687;28;20452;-75
2022/10/13 07:06:30;;;;;;;12.77;7.23;;;13.30;99.90;;;;;;5114288;28;20950;-75
2022/10/13 07:08:58;;;;;;;11.90;7.47;;;13.50;99.90;;;;;;5113923;28;20483;-75
2022/10/13 07:11:24;;;;;;;12.80;6.23;;;13.40;99.90;;;;;;5113871;28;20448;-72
2022/10/13 07:13:54;;;;;;;13.53;5.33;;;13.40;99.90;;;;;;5114344;28;20508;-75
2022/10/13 07:16:21;;;;;;;9.83;6.23;;;13.40;99.90;;;;;;5114010;28;20452;-75
2022/10/13 07:18:48;;;;;;;12.33;6.80;;;13.40;99.90;;;;;;5114380;28;20546;-75
2022/10/13 07:21:15;;;;;;;8.50;5.73;;;13.30;99.90;;;;;;5113490;28;20456;-76
2022/10/13 07:23:42;;;;;;;15.17;5.63;;;13.50;99.90;;;;;;5113991;28;20931;-75
2022/10/13 07:26:13;;;;;;;10.70;5.40;;;13.60;99.90;;;;;;5113563;28;20446;-76
2022/10/13 07:28:40;;;;;;;12.50;6.17;;;13.60;99.90;;;;;;5114110;28;20486;-75
2022/10/13 07:31:09;;;;;;;14.27;6.47;;;13.60;99.90;;;;;;5113567;28;20440;-76
2022/10/13 07:33:36;;;;;;;15.87;7.63;;;13.60;99.90;;;;;;5113554;28;20802;-74
2022/10/13 07:36:04;;;;;;;14.30;6.77;;;13.60;99.90;;;;;;5113148;28;20943;-74
2022/10/13 07:38:30;;;;;;;16.20;6.40;;;13.60;99.90;;;;;;5114011;28;20480;-76
2022/10/13 07:41:00;;;;;;;10.63;6.37;;;13.60;99.90;;;;;;5113288;28;20440;-75
2022/10/13 07:43:28;;;;;;;9.50;5.80;;;13.70;99.90;;;;;;5112998;28;20934;-75
2022/10/13 07:45:57;;;;;;;12.13;6.20;;;13.80;99.90;;;;;;5113359;28;20456;-75
2022/10/13 07:48:24;;;;;;;11.27;7.60;;;13.90;99.90;;;;;;5113317;28;20514;-73
2022/10/13 07:50:51;;;;;;;12.97;6.33;;;14.00;99.90;;;;;;5113797;28;20879;-74
2022/10/13 07:53:18;;;;;;;13.93;7.70;;;13.80;99.90;;;;;;5112880;28;20444;-76
2022/10/13 07:55:45;;;;;;;12.60;6.37;;;13.70;99.90;;;;;;5113805;28;20452;-75
2022/10/13 07:58:11;;;;;;;13.43;5.90;;;13.70;99.90;;;;;;5112601;28;20463;-75
2022/10/13 08:00:39;;;;;;;14.70;6.07;;;13.80;99.90;;;;;;5112306;28;20935;-75
2022/10/13 08:03:06;;;;;;;11.30;6.93;;;13.80;99.90;;;;;;5112266;28;20463;-74
2022/10/13 08:05:33;;;;;;;12.03;6.47;;;13.80;99.90;;;;;;5113544;28;20799;-75
2022/10/13 08:08:00;;;;;;;10.53;5.43;;;14.00;99.90;;;;;;5112886;28;20459;-75
2022/10/13 08:10:28;;;;;;;13.10;6.63;;;14.10;99.90;;;;;;5124352;28;20440;-75
2022/10/13 08:12:55;;;;;;;13.33;6.30;;;14.00;99.90;;;;;;5124822;28;20451;-69
2022/10/13 08:15:22;;;;;;;13.93;5.80;;;14.00;99.90;;;;;;5115513;28;20494;-75
2022/10/13 08:17:50;;;;;;;8.30;5.53;;;14.10;99.90;;;;;;5116866;28;20455;-74
2022/10/13 08:20:17;;;;;;;9.33;4.80;;;14.30;99.90;;;;;;5122314;28;20514;-76
2022/10/13 08:22:43;;;;;;;9.60;4.27;;;14.40;99.90;;;;;;5123718;28;20447;-76
2022/10/13 08:25:10;;;;;;;13.47;6.37;;;14.50;99.90;;;;;;5114844;28;20454;-74
2022/10/13 08:27:38;;;;;;;11.80;5.93;;;14.40;99.90;;;;;;5113102;28;20439;-76
2022/10/13 08:30:05;;;;;;;8.87;5.40;;;14.40;99.90;;;;;;5112499;28;20483;-76
2022/10/13 08:32:32;;;;;;;6.50;4.00;;;14.30;99.90;;;;;;5112198;28;20455;-73
2022/10/13 08:35:00;;;;;;;11.13;4.80;;;14.50;99.90;;;;;;5112434;28;20455;-73
2022/10/13 08:37:27;;;;;;;10.90;5.20;;;14.70;99.90;;;;;;5112504;28;20440;-73
2022/10/13 08:39:56;;;;;;;8.87;5.53;;;14.70;99.90;;;;;;5112536;28;20451;-65
2022/10/13 08:42:23;;;;;;;10.47;5.07;;;14.80;99.90;;;;;;5112749;28;20780;-73
2022/10/13 08:44:53;;;;;;;13.07;5.43;;;14.80;99.90;;;;;;5112515;28;20945;-73
2022/10/13 08:47:30;;;;;;;10.40;5.13;;;14.90;99.90;;;;;;5112771;28;20447;-73
2022/10/13 08:50:00;;;;;;;8.57;5.03;;;14.90;99.90;;;;;;5111822;28;20474;-72
2022/10/13 08:52:29;;;;;;;8.10;4.77;;;15.00;99.90;;;;;;5112163;28;20446;-73
2022/10/13 08:54:57;;;;;;;12.00;4.33;;;15.20;99.90;;;;;;5111575;28;20965;-73
2022/10/13 08:57:24;;;;;;;7.17;4.50;;;15.30;99.90;;;;;;5112721;28;20448;-73
2022/10/13 08:59:52;;;;;;;10.00;4.37;;;15.20;99.90;;;;;;5112277;28;20455;-73
2022/10/13 09:02:25;;;;;;;6.53;3.97;;;15.20;99.90;;;;;;5111719;28;20762;-75
2022/10/13 09:04:53;;;;;;;8.83;5.27;;;15.20;99.90;;;;;;5112708;28;20521;-75
2022/10/13 09:07:26;;;;;;;8.20;4.43;;;15.30;99.90;;;;;;5112633;28;20448;-73
2022/10/13 09:09:54;;;;;;;4.40;3.80;;;15.30;99.90;;;;;;5112053;28;20555;-75
2022/10/13 09:12:23;;;;;;;5.97;3.67;;;15.40;99.90;;;;;;5111731;28;20808;-75
2022/10/13 09:14:58;;;;;;;6.80;4.20;;;15.60;12.50;;;;;;5112102;28;20789;-72
2022/10/13 09:17:26;;;;;;;7.47;3.83;;;15.70;1.00;;;;;;5111871;28;20455;-70
2022/10/13 09:19:59;;;;;;;5.50;3.70;;;15.60;1.00;;;;;;5111866;28;20482;-74
2022/10/13 09:22:29;;;;;;;5.60;3.50;;;15.60;1.00;;;;;;5111687;28;20531;-76
2022/10/13 09:25:09;;;;;;;4.37;3.27;;;15.60;1.00;;;;;;5111348;28;20460;-76
2022/10/13 09:27:44;;;;;;;6.13;4.63;;;15.50;66.30;;;;;;5112007;28;20442;-76
2022/10/13 09:30:37;;;;;;;5.90;3.87;;;15.50;17.30;;;;;;5111236;28;20510;-76
2022/10/13 09:33:22;;;;;;;4.60;4.20;;;15.60;1.00;;;;;;5091885;28;20460;-73
2022/10/13 09:36:11;;;;;;;7.30;3.80;;;15.90;1.00;;;;;;5112139;28;20838;-73
2022/10/13 09:38:40;;;;;;;5.73;3.80;;;15.90;1.00;;;;;;5111782;28;20448;-75
2022/10/13 09:41:14;;;;;;;7.43;3.97;;;16.10;99.90;;;;;;5110762;28;20447;-75
2022/10/13 09:43:43;;;;;;;5.60;3.40;;;15.90;1.00;;;;;;5111375;28;20927;-76
2022/10/13 09:46:20;;;;;;;4.70;3.40;;;15.90;1.00;;;;;;5111395;28;20478;-75
2022/10/13 09:48:50;;;;;;;11.07;3.40;;;15.90;1.00;;;;;;5111290;28;20495;-76
2022/10/13 09:51:39;;;;;;;5.30;3.60;;;16.00;1.00;;;;;;5110808;28;20448;-76
2022/10/13 09:54:27;;;;;;;4.03;3.10;;;16.10;1.00;;;;;;5105815;28;20557;-76
2022/10/13 09:56:59;;;;;;;5.60;3.57;;;16.40;99.90;;;;;;5111916;28;20451;-71
2022/10/13 09:59:32;;;;;;;3.90;3.00;;;16.30;1.00;;;;;;5111452;28;20451;-75
2022/10/13 10:02:03;;;;;;;5.00;3.87;;;16.30;1.00;;;;;;5110542;28;20428;-76
2022/10/13 10:04:35;;;;;;;5.80;3.10;;;16.30;1.00;;;;;;5111440;28;20937;-75
2022/10/13 10:07:10;;;;;;;6.70;3.43;;;16.50;99.90;;;;;;5111234;28;20440;-76
2022/10/13 10:09:44;;;;;;;4.50;3.47;;;16.50;1.00;;;;;;5111187;28;20478;-75
2022/10/13 10:12:16;;;;;;;4.70;3.37;;;16.40;1.00;;;;;;5110347;28;20926;-76
2022/10/13 10:14:42;;;;;;;4.70;2.93;;;16.70;99.90;;;;;;5111434;28;20448;-76
2022/10/13 10:17:19;;;;;;;5.60;3.13;;;16.80;1.00;;;;;;5110862;28;20454;-76
2022/10/13 10:19:59;;;;;;;4.87;3.30;;;16.80;1.00;;;;;;5111452;28;20440;-76
2022/10/13 10:22:35;;;;;;;7.03;3.57;;;16.80;1.00;;;;;;5110601;28;20439;-73
2022/10/13 10:25:22;;;;;;;7.03;3.20;;;16.70;1.00;;;;;;5113265;28;20446;-74
2022/10/13 10:28:02;;;;;;;5.67;2.90;;;16.60;69.70;;;;;;5115495;28;20451;-76
2022/10/13 10:30:33;;;;;;;4.97;3.10;;;16.50;99.90;;;;;;5115304;28;20468;-73
2022/10/13 10:33:09;;;;;;;6.90;3.83;;;16.50;99.90;;;;;;5114541;28;20750;-73
2022/10/13 10:35:44;;;;;;;8.50;3.57;;;16.60;1.00;;;;;;5114997;28;20445;-76
2022/10/13 10:38:25;;;;;;;8.03;3.10;;;16.50;1.00;;;;;;5114633;28;20492;-76
2022/10/13 10:41:05;;;;;;;5.80;2.90;;;16.30;99.90;;;;;;5115477;28;20443;-76
2022/10/13 10:43:41;;;;;;;5.80;3.00;;;16.50;1.00;;;;;;5114525;28;20926;-75
2022/10/13 10:46:16;;;;;;;4.60;3.40;;;16.40;99.90;;;;;;5114134;28;20463;-76
2022/10/13 10:48:46;;;;;;;6.60;3.90;;;16.50;1.00;;;;;;5114685;28;20478;-76
2022/10/13 10:51:14;;;;;;;7.50;3.90;;;16.50;1.00;;;;;;5114032;28;20460;-72
2022/10/13 10:53:52;;;;;;;4.00;3.10;;;16.50;1.00;;;;;;5114747;28;20460;-73
2022/10/13 10:56:27;;;;;;;5.77;3.13;;;16.60;1.00;;;;;;5114442;28;20798;-74
2022/10/13 10:59:06;;;;;;;7.30;2.80;;;16.80;99.90;;;;;;5101856;28;20443;-73
2022/10/13 11:01:39;;;;;;;8.93;3.00;;;16.80;41.00;;;;;;5113922;28;20432;-73
2022/10/13 11:04:39;;;;;;;3.83;3.20;;;16.90;99.90;;;;;;5113228;28;20452;-73
2022/10/13 11:07:11;;;;;;;4.90;3.00;;;16.90;1.00;;;;;;5110464;28;20985;-76
2022/10/13 11:10:17;;;;;;;3.33;3.00;;;17.10;99.90;;;;;;5113639;28;20471;-76
2022/10/13 11:13:21;;;;;;;6.40;3.20;;;17.20;1.00;;;;;;5103280;28;20962;-75
2022/10/13 11:15:49;;;;;;;3.83;3.23;;;17.20;17.30;;;;;;5108732;28;20447;-75
2022/10/13 11:18:53;;;;;;;5.17;2.80;;;17.00;1.00;;;;;;5112507;28;20460;-76
2022/10/13 11:21:20;;;;;;;6.00;3.00;;;17.30;1.00;;;;;;5112605;28;20459;-69
2022/10/13 11:23:49;;;;;;;9.03;3.13;;;17.30;99.90;;;;;;5112942;28;20447;-76
2022/10/13 11:26:31;;;;;;;4.83;3.20;;;17.20;79.10;;;;;;5098615;28;20460;-76
2022/10/13 11:28:59;;;;;;;4.67;3.67;;;17.20;99.90;;;;;;5111963;28;20460;-73
2022/10/13 11:31:30;;;;;;;6.20;4.33;;;17.40;1.00;;;;;;5110660;28;20458;-75
2022/10/13 11:34:00;;;;;;;4.80;3.37;;;17.30;1.00;;;;;;5112255;28;20522;-75
2022/10/13 11:36:51;;;;;;;3.80;3.40;;;17.30;99.90;;;;;;5113632;28;20443;-75
2022/10/13 11:40:00;;;;;;;5.57;3.83;;;17.20;1.00;;;;;;5104413;28;20895;-75
2022/10/13 11:42:47;;;;;;;4.30;2.30;;;17.20;99.90;;;;;;5113421;28;20515;-74
2022/10/13 11:45:52;;;;;;;6.93;3.63;;;17.50;44.90;;;;;;5099546;28;20514;-75
2022/10/13 11:48:46;;;;;;;4.00;3.20;;;17.40;1.00;;;;;;5113307;28;20476;-74
2022/10/13 11:51:22;;;;;;;7.57;3.97;;;17.50;99.90;;;;;;5112606;28;20479;-75
2022/10/13 11:53:55;;;;;;;11.07;3.67;;;17.70;1.00;;;;;;5113769;28;20542;-74
2022/10/13 11:56:32;;;;;;;2.60;2.40;;;17.90;1.00;;;;;;5113389;28;20447;-73
2022/10/13 11:58:59;;;;;;;7.60;3.10;;;17.90;1.00;;;;;;5112659;28;20931;-74
2022/10/13 12:01:26;;;;;;;5.93;2.90;;;17.80;99.90;;;;;;5112857;28;20452;-74
2022/10/13 12:03:54;;;;;;;3.27;2.63;;;17.90;1.00;;;;;;5113380;28;20447;-75
2022/10/13 12:06:32;;;;;;;3.77;2.37;;;17.70;1.00;;;;;;5113577;28;20493;-74
2022/10/13 12:09:01;;;;;;;2.97;2.63;;;17.90;1.00;;;;;;5112283;28;20443;-75
2022/10/13 12:11:30;;;;;;;7.43;2.50;;;18.10;99.90;;;;;;5112716;28;20443;-74
2022/10/13 12:13:58;;;;;;;3.27;2.63;;;18.20;99.90;;;;;;5112513;28;20444;-74
2022/10/13 12:16:24;;;;;;;4.00;2.77;;;18.10;99.90;;;;;;5113262;28;20460;-72
2022/10/13 12:18:54;;;;;;;4.93;2.80;;;18.20;1.00;;;;;;5113092;28;20447;-76
2022/10/13 12:21:22;;;;;;;3.33;2.43;;;18.30;99.90;;;;;;5112414;28;20934;-74
2022/10/13 12:23:50;;;;;;;3.50;2.50;;;18.40;21.80;;;;;;5113039;28;20530;-75
2022/10/13 12:26:19;;;;;;;3.60;2.30;;;18.30;1.00;;;;;;5112345;28;20451;-76
2022/10/13 12:28:50;;;;;;;3.10;2.80;;;18.30;84.60;;;;;;5113000;28;20451;-76
2022/10/13 12:31:20;;;;;;;7.13;3.90;;;18.40;39.80;;;;;;5112325;28;20572;-75
2022/10/13 12:33:55;;;;;;;3.03;2.30;;;18.30;1.00;;;;;;5112869;28;20794;-75
2022/10/13 12:36:26;;;;;;;4.20;2.30;;;18.40;1.00;;;;;;5113108;28;20783;-75
2022/10/13 12:38:55;;;;;;;4.60;2.67;;;18.40;1.00;;;;;;5112810;28;20447;-75
2022/10/13 12:41:26;;;;;;;2.67;1.97;;;18.40;99.90;;;;;;5112487;28;20470;-75
2022/10/13 12:43:54;;;;;;;4.00;3.20;;;18.70;99.90;;;;;;5112693;28;20440;-75
2022/10/13 12:46:40;;;;;;;4.03;2.27;;;19.00;1.00;;;;;;5112298;28;20456;-74
2022/10/13 12:49:14;;;;;;;4.53;2.37;;;18.90;1.00;;;;;;5100718;28;20471;-75
2022/10/13 12:51:42;;;;;;;3.07;2.27;;;19.20;1.00;;;;;;5111892;28;20442;-75
2022/10/13 12:54:18;;;;;;;4.53;2.70;;;19.50;1.00;;;;;;5112120;28;20505;-75
2022/10/13 12:56:46;;;;;;;5.43;3.10;;;19.00;1.00;;;;;;5112512;28;20448;-74
2022/10/13 12:59:17;;;;;;;3.47;2.60;;;18.70;1.00;;;;;;5111442;28;20690;-76
2022/10/13 13:01:44;;;;;;;2.30;1.83;;;18.90;99.90;;;;;;5111799;28;20501;-76